sensor_id;sensor_type;location;lat;lon;timestamp;P1;durP1;ratioP1;P2;durP2;ratioP2
57635;SDS011;43465;50.728;4.160;2023-04-01T00:02:07;19.33;;;4.90;;
57635;SDS011;43465;50.728;4.160;2023-04-01T00:05:09;16.35;;;4.35;;
57635;SDS011;43465;50.728;4.160;2023-04-01T00:07:56;18.45;;;4.40;;
57635;SDS011;43465;50.728;4.160;2023-04-01T00:10:56;18.77;;;4.20;;
57635;SDS011;43465;50.728;4.160;2023-04-01T00:13:52;9.95;;;2.97;;
57635;SDS011;43465;50.728;4.160;2023-04-01T00:16:25;18.23;;;3.85;;
57635;SDS011;43465;50.728;4.160;2023-04-01T00:19:11;9.82;;;3.47;;
57635;SDS011;43465;50.728;4.160;2023-04-01T00:21:38;12.95;;;3.42;;
57635;SDS011;43465;50.728;4.160;2023-04-01T00:24:09;8.77;;;3.78;;
57635;SDS011;43465;50.728;4.160;2023-04-01T00:43:30;15.30;;;4.80;;
57635;SDS011;43465;50.728;4.160;2023-04-01T00:53:39;11.68;;;4.75;;
57635;SDS011;43465;50.728;4.160;2023-04-01T00:56:15;11.57;;;4.80;;
57635;SDS011;43465;50.728;4.160;2023-04-01T00:59:03;11.85;;;4.80;;
57635;SDS011;43465;50.728;4.160;2023-04-01T01:01:33;9.52;;;4.18;;
57635;SDS011;43465;50.728;4.160;2023-04-01T01:04:00;11.77;;;5.03;;
57635;SDS011;43465;50.728;4.160;2023-04-01T01:06:45;8.13;;;4.18;;
57635;SDS011;43465;50.728;4.160;2023-04-01T01:31:23;12.45;;;4.53;;
57635;SDS011;43465;50.728;4.160;2023-04-01T01:36:40;6.93;;;3.15;;
57635;SDS011;43465;50.728;4.160;2023-04-01T01:39:10;8.45;;;3.55;;
57635;SDS011;43465;50.728;4.160;2023-04-01T01:41:37;5.75;;;3.53;;
57635;SDS011;43465;50.728;4.160;2023-04-01T01:44:06;8.45;;;4.60;;
57635;SDS011;43465;50.728;4.160;2023-04-01T01:46:34;10.20;;;5.57;;
57635;SDS011;43465;50.728;4.160;2023-04-01T01:49:03;10.40;;;5.68;;
57635;SDS011;43465;50.728;4.160;2023-04-01T01:51:30;9.38;;;5.10;;
57635;SDS011;43465;50.728;4.160;2023-04-01T01:53:56;10.45;;;6.18;;
57635;SDS011;43465;50.728;4.160;2023-04-01T01:56:22;10.30;;;6.07;;
57635;SDS011;43465;50.728;4.160;2023-04-01T01:58:52;9.40;;;5.80;;
57635;SDS011;43465;50.728;4.160;2023-04-01T02:01:29;14.80;;;7.50;;
57635;SDS011;43465;50.728;4.160;2023-04-01T02:03:58;12.93;;;7.95;;
57635;SDS011;43465;50.728;4.160;2023-04-01T02:06:25;15.73;;;8.73;;
57635;SDS011;43465;50.728;4.160;2023-04-01T02:08:55;19.13;;;8.25;;
57635;SDS011;43465;50.728;4.160;2023-04-01T02:11:30;16.48;;;9.32;;
57635;SDS011;43465;50.728;4.160;2023-04-01T02:14:02;19.52;;;9.13;;
57635;SDS011;43465;50.728;4.160;2023-04-01T02:16:33;15.07;;;9.70;;
57635;SDS011;43465;50.728;4.160;2023-04-01T02:19:03;19.00;;;10.18;;
57635;SDS011;43465;50.728;4.160;2023-04-01T02:21:32;22.10;;;11.30;;
57635;SDS011;43465;50.728;4.160;2023-04-01T02:24:00;24.77;;;11.38;;
57635;SDS011;43465;50.728;4.160;2023-04-01T02:26:29;21.05;;;12.18;;
57635;SDS011;43465;50.728;4.160;2023-04-01T02:28:55;20.27;;;11.43;;
57635;SDS011;43465;50.728;4.160;2023-04-01T02:31:23;24.88;;;10.82;;
57635;SDS011;43465;50.728;4.160;2023-04-01T02:33:49;22.75;;;11.77;;
57635;SDS011;43465;50.728;4.160;2023-04-01T02:36:15;20.50;;;11.25;;
57635;SDS011;43465;50.728;4.160;2023-04-01T02:38:42;25.85;;;11.77;;
57635;SDS011;43465;50.728;4.160;2023-04-01T02:41:10;24.02;;;12.25;;
57635;SDS011;43465;50.728;4.160;2023-04-01T02:43:36;20.75;;;11.20;;
57635;SDS011;43465;50.728;4.160;2023-04-01T02:46:02;21.60;;;12.82;;
57635;SDS011;43465;50.728;4.160;2023-04-01T02:48:28;29.02;;;13.43;;
57635;SDS011;43465;50.728;4.160;2023-04-01T02:50:54;27.00;;;13.70;;
57635;SDS011;43465;50.728;4.160;2023-04-01T02:53:19;22.67;;;13.73;;
57635;SDS011;43465;50.728;4.160;2023-04-01T02:55:45;24.65;;;13.68;;
57635;SDS011;43465;50.728;4.160;2023-04-01T02:58:11;20.05;;;13.02;;
57635;SDS011;43465;50.728;4.160;2023-04-01T03:00:37;23.75;;;12.52;;
57635;SDS011;43465;50.728;4.160;2023-04-01T03:03:03;25.80;;;13.60;;
57635;SDS011;43465;50.728;4.160;2023-04-01T03:05:28;20.65;;;12.45;;
57635;SDS011;43465;50.728;4.160;2023-04-01T03:07:55;22.17;;;11.73;;
57635;SDS011;43465;50.728;4.160;2023-04-01T03:10:20;21.60;;;11.88;;
57635;SDS011;43465;50.728;4.160;2023-04-01T03:12:46;24.42;;;12.20;;
57635;SDS011;43465;50.728;4.160;2023-04-01T03:15:12;24.20;;;12.77;;
57635;SDS011;43465;50.728;4.160;2023-04-01T03:17:40;20.73;;;11.95;;
57635;SDS011;43465;50.728;4.160;2023-04-01T03:20:07;21.33;;;11.02;;
57635;SDS011;43465;50.728;4.160;2023-04-01T03:22:34;23.92;;;11.88;;
57635;SDS011;43465;50.728;4.160;2023-04-01T03:25:00;26.10;;;13.15;;
57635;SDS011;43465;50.728;4.160;2023-04-01T03:27:27;24.55;;;13.18;;
57635;SDS011;43465;50.728;4.160;2023-04-01T03:29:53;27.42;;;14.07;;
57635;SDS011;43465;50.728;4.160;2023-04-01T03:32:19;25.73;;;13.45;;
57635;SDS011;43465;50.728;4.160;2023-04-01T03:34:44;29.17;;;13.68;;
57635;SDS011;43465;50.728;4.160;2023-04-01T03:37:10;25.48;;;14.75;;
57635;SDS011;43465;50.728;4.160;2023-04-01T03:39:36;23.38;;;14.77;;
57635;SDS011;43465;50.728;4.160;2023-04-01T03:42:01;27.55;;;15.18;;
57635;SDS011;43465;50.728;4.160;2023-04-01T03:44:31;24.23;;;15.63;;
57635;SDS011;43465;50.728;4.160;2023-04-01T03:46:57;24.67;;;15.40;;
57635;SDS011;43465;50.728;4.160;2023-04-01T03:49:23;23.92;;;15.05;;
57635;SDS011;43465;50.728;4.160;2023-04-01T03:51:48;27.52;;;15.80;;
57635;SDS011;43465;50.728;4.160;2023-04-01T03:54:14;21.65;;;15.88;;
57635;SDS011;43465;50.728;4.160;2023-04-01T03:56:40;29.90;;;16.25;;
57635;SDS011;43465;50.728;4.160;2023-04-01T03:59:06;30.27;;;17.55;;
57635;SDS011;43465;50.728;4.160;2023-04-01T04:01:32;26.77;;;16.15;;
57635;SDS011;43465;50.728;4.160;2023-04-01T04:03:58;31.42;;;16.52;;
57635;SDS011;43465;50.728;4.160;2023-04-01T04:06:26;30.00;;;17.50;;
57635;SDS011;43465;50.728;4.160;2023-04-01T04:08:52;29.98;;;17.55;;
57635;SDS011;43465;50.728;4.160;2023-04-01T04:11:18;30.85;;;17.30;;
57635;SDS011;43465;50.728;4.160;2023-04-01T04:13:45;29.08;;;17.42;;
57635;SDS011;43465;50.728;4.160;2023-04-01T04:16:12;32.38;;;17.70;;
57635;SDS011;43465;50.728;4.160;2023-04-01T04:18:38;28.52;;;17.80;;
57635;SDS011;43465;50.728;4.160;2023-04-01T04:21:04;28.55;;;17.15;;
57635;SDS011;43465;50.728;4.160;2023-04-01T04:23:30;31.25;;;17.20;;
57635;SDS011;43465;50.728;4.160;2023-04-01T04:28:30;28.92;;;17.52;;
57635;SDS011;43465;50.728;4.160;2023-04-01T04:30:56;27.95;;;16.70;;
57635;SDS011;43465;50.728;4.160;2023-04-01T04:33:22;31.48;;;16.75;;
57635;SDS011;43465;50.728;4.160;2023-04-01T04:35:49;28.15;;;16.05;;
57635;SDS011;43465;50.728;4.160;2023-04-01T04:38:15;29.30;;;18.63;;
57635;SDS011;43465;50.728;4.160;2023-04-01T04:40:41;26.45;;;15.35;;
57635;SDS011;43465;50.728;4.160;2023-04-01T04:43:09;30.13;;;15.82;;
57635;SDS011;43465;50.728;4.160;2023-04-01T04:45:36;29.70;;;16.95;;
57635;SDS011;43465;50.728;4.160;2023-04-01T04:48:01;30.63;;;16.42;;
57635;SDS011;43465;50.728;4.160;2023-04-01T04:50:27;25.30;;;15.38;;
57635;SDS011;43465;50.728;4.160;2023-04-01T04:52:53;26.30;;;16.23;;
57635;SDS011;43465;50.728;4.160;2023-04-01T04:55:18;27.02;;;16.73;;
57635;SDS011;43465;50.728;4.160;2023-04-01T04:57:44;29.80;;;16.95;;
57635;SDS011;43465;50.728;4.160;2023-04-01T05:00:10;27.92;;;16.65;;
57635;SDS011;43465;50.728;4.160;2023-04-01T05:02:36;29.85;;;16.60;;
57635;SDS011;43465;50.728;4.160;2023-04-01T05:05:02;27.83;;;16.80;;
57635;SDS011;43465;50.728;4.160;2023-04-01T05:07:29;28.70;;;15.63;;
57635;SDS011;43465;50.728;4.160;2023-04-01T05:09:55;22.92;;;13.98;;
57635;SDS011;43465;50.728;4.160;2023-04-01T05:12:20;25.00;;;14.00;;
57635;SDS011;43465;50.728;4.160;2023-04-01T05:14:46;22.25;;;13.63;;
57635;SDS011;43465;50.728;4.160;2023-04-01T05:17:12;22.15;;;12.35;;
57635;SDS011;43465;50.728;4.160;2023-04-01T05:19:38;20.92;;;12.75;;
57635;SDS011;43465;50.728;4.160;2023-04-01T05:22:04;22.98;;;13.88;;
57635;SDS011;43465;50.728;4.160;2023-04-01T05:24:31;24.10;;;13.93;;
57635;SDS011;43465;50.728;4.160;2023-04-01T05:26:57;29.73;;;15.25;;
57635;SDS011;43465;50.728;4.160;2023-04-01T05:29:23;28.90;;;17.38;;
57635;SDS011;43465;50.728;4.160;2023-04-01T05:31:50;29.85;;;16.38;;
57635;SDS011;43465;50.728;4.160;2023-04-01T05:34:16;35.65;;;17.40;;
57635;SDS011;43465;50.728;4.160;2023-04-01T05:36:42;27.83;;;17.58;;
57635;SDS011;43465;50.728;4.160;2023-04-01T05:39:08;35.95;;;19.08;;
57635;SDS011;43465;50.728;4.160;2023-04-01T05:41:34;34.20;;;18.88;;
57635;SDS011;43465;50.728;4.160;2023-04-01T05:44:01;35.72;;;18.40;;
57635;SDS011;43465;50.728;4.160;2023-04-01T05:46:27;35.10;;;19.45;;
57635;SDS011;43465;50.728;4.160;2023-04-01T05:48:53;32.92;;;19.23;;
57635;SDS011;43465;50.728;4.160;2023-04-01T05:51:18;36.00;;;18.83;;
57635;SDS011;43465;50.728;4.160;2023-04-01T05:53:44;37.53;;;19.35;;
57635;SDS011;43465;50.728;4.160;2023-04-01T05:56:10;31.95;;;16.77;;
57635;SDS011;43465;50.728;4.160;2023-04-01T05:58:36;27.73;;;15.55;;
57635;SDS011;43465;50.728;4.160;2023-04-01T06:01:06;28.90;;;15.32;;
57635;SDS011;43465;50.728;4.160;2023-04-01T06:06:01;21.52;;;12.40;;
57635;SDS011;43465;50.728;4.160;2023-04-01T06:08:27;19.95;;;12.10;;
57635;SDS011;43465;50.728;4.160;2023-04-01T06:14:07;18.85;;;11.82;;
57635;SDS011;43465;50.728;4.160;2023-04-01T06:30:43;20.98;;;13.43;;
57635;SDS011;43465;50.728;4.160;2023-04-01T06:33:27;18.05;;;12.77;;
57635;SDS011;43465;50.728;4.160;2023-04-01T06:50:29;22.00;;;12.45;;
57635;SDS011;43465;50.728;4.160;2023-04-01T06:53:06;23.83;;;12.82;;
57635;SDS011;43465;50.728;4.160;2023-04-01T06:55:42;25.48;;;14.63;;
57635;SDS011;43465;50.728;4.160;2023-04-01T06:58:19;30.40;;;14.82;;
57635;SDS011;43465;50.728;4.160;2023-04-01T07:00:48;25.27;;;15.55;;
57635;SDS011;43465;50.728;4.160;2023-04-01T07:05:54;24.10;;;13.65;;
57635;SDS011;43465;50.728;4.160;2023-04-01T07:08:25;21.17;;;13.45;;
57635;SDS011;43465;50.728;4.160;2023-04-01T07:10:55;22.02;;;13.90;;
57635;SDS011;43465;50.728;4.160;2023-04-01T07:13:29;20.40;;;12.60;;
57635;SDS011;43465;50.728;4.160;2023-04-01T07:18:30;14.70;;;10.23;;
57635;SDS011;43465;50.728;4.160;2023-04-01T07:21:06;13.68;;;8.63;;
57635;SDS011;43465;50.728;4.160;2023-04-01T07:23:42;12.02;;;7.32;;
57635;SDS011;43465;50.728;4.160;2023-04-01T07:26:18;10.02;;;7.45;;
57635;SDS011;43465;50.728;4.160;2023-04-01T07:28:48;7.88;;;6.75;;
57635;SDS011;43465;50.728;4.160;2023-04-01T07:36:33;11.93;;;8.00;;
57635;SDS011;43465;50.728;4.160;2023-04-01T07:42:01;11.05;;;8.63;;
57635;SDS011;43465;50.728;4.160;2023-04-01T07:44:47;14.15;;;9.05;;
57635;SDS011;43465;50.728;4.160;2023-04-01T07:52:52;7.43;;;6.00;;
57635;SDS011;43465;50.728;4.160;2023-04-01T07:58:17;6.32;;;4.68;;
57635;SDS011;43465;50.728;4.160;2023-04-01T08:04:15;5.05;;;4.30;;
57635;SDS011;43465;50.728;4.160;2023-04-01T08:15:37;6.57;;;5.53;;
57635;SDS011;43465;50.728;4.160;2023-04-01T08:21:19;6.72;;;5.63;;
57635;SDS011;43465;50.728;4.160;2023-04-01T08:23:51;6.15;;;5.30;;
57635;SDS011;43465;50.728;4.160;2023-04-01T08:26:23;7.35;;;5.75;;
57635;SDS011;43465;50.728;4.160;2023-04-01T08:34:17;5.40;;;4.68;;
57635;SDS011;43465;50.728;4.160;2023-04-01T08:36:59;3.55;;;3.25;;
57635;SDS011;43465;50.728;4.160;2023-04-01T08:39:35;4.75;;;3.03;;
57635;SDS011;43465;50.728;4.160;2023-04-01T08:53:24;3.25;;;3.05;;
57635;SDS011;43465;50.728;4.160;2023-04-01T08:59:50;3.13;;;2.83;;
57635;SDS011;43465;50.728;4.160;2023-04-01T09:10:24;2.40;;;2.20;;
57635;SDS011;43465;50.728;4.160;2023-04-01T09:37:21;6.68;;;3.60;;
57635;SDS011;43465;50.728;4.160;2023-04-01T09:51:19;3.38;;;3.00;;
57635;SDS011;43465;50.728;4.160;2023-04-01T09:54:07;2.60;;;2.40;;
57635;SDS011;43465;50.728;4.160;2023-04-01T10:25:42;4.47;;;3.92;;
57635;SDS011;43465;50.728;4.160;2023-04-01T10:29:32;4.35;;;3.65;;
57635;SDS011;43465;50.728;4.160;2023-04-01T10:48:12;4.00;;;2.92;;
57635;SDS011;43465;50.728;4.160;2023-04-01T11:44:28;2.00;;;1.80;;
57635;SDS011;43465;50.728;4.160;2023-04-01T11:50:00;3.55;;;1.90;;
57635;SDS011;43465;50.728;4.160;2023-04-01T11:58:42;2.78;;;2.58;;
57635;SDS011;43465;50.728;4.160;2023-04-01T12:10:17;2.95;;;2.63;;
57635;SDS011;43465;50.728;4.160;2023-04-01T12:13:01;3.60;;;2.13;;
57635;SDS011;43465;50.728;4.160;2023-04-01T12:15:54;2.08;;;1.95;;
57635;SDS011;43465;50.728;4.160;2023-04-01T12:18:47;4.15;;;2.40;;
57635;SDS011;43465;50.728;4.160;2023-04-01T12:40:19;2.42;;;2.20;;
57635;SDS011;43465;50.728;4.160;2023-04-01T12:42:51;2.40;;;2.20;;
57635;SDS011;43465;50.728;4.160;2023-04-01T12:54:22;3.10;;;2.80;;
57635;SDS011;43465;50.728;4.160;2023-04-01T12:57:12;3.67;;;3.20;;
57635;SDS011;43465;50.728;4.160;2023-04-01T13:00:12;3.45;;;3.15;;
57635;SDS011;43465;50.728;4.160;2023-04-01T13:19:58;6.00;;;4.43;;
57635;SDS011;43465;50.728;4.160;2023-04-01T13:28:25;5.53;;;4.47;;
57635;SDS011;43465;50.728;4.160;2023-04-01T13:31:13;4.10;;;3.70;;
57635;SDS011;43465;50.728;4.160;2023-04-01T13:34:20;5.20;;;3.42;;
57635;SDS011;43465;50.728;4.160;2023-04-01T13:40:00;3.85;;;3.30;;
57635;SDS011;43465;50.728;4.160;2023-04-01T13:42:30;4.03;;;2.90;;
57635;SDS011;43465;50.728;4.160;2023-04-01T13:45:09;4.28;;;3.03;;
57635;SDS011;43465;50.728;4.160;2023-04-01T14:24:05;2.38;;;1.20;;
57635;SDS011;43465;50.728;4.160;2023-04-01T14:32:24;1.08;;;1.08;;
57635;SDS011;43465;50.728;4.160;2023-04-01T14:38:06;1.25;;;1.15;;
57635;SDS011;43465;50.728;4.160;2023-04-01T14:41:06;1.67;;;1.15;;
57635;SDS011;43465;50.728;4.160;2023-04-01T14:49:43;0.90;;;0.90;;
57635;SDS011;43465;50.728;4.160;2023-04-01T14:54:46;2.05;;;1.60;;
57635;SDS011;43465;50.728;4.160;2023-04-01T14:57:15;2.55;;;1.60;;
57635;SDS011;43465;50.728;4.160;2023-04-01T15:03:02;1.42;;;1.35;;
57635;SDS011;43465;50.728;4.160;2023-04-01T15:05:50;1.45;;;1.35;;
57635;SDS011;43465;50.728;4.160;2023-04-01T15:13:59;2.33;;;2.13;;
57635;SDS011;43465;50.728;4.160;2023-04-01T15:27:49;1.30;;;1.20;;
57635;SDS011;43465;50.728;4.160;2023-04-01T15:30:30;1.17;;;1.05;;
57635;SDS011;43465;50.728;4.160;2023-04-01T15:35:46;1.55;;;1.45;;
57635;SDS011;43465;50.728;4.160;2023-04-01T15:41:16;1.17;;;1.13;;
57635;SDS011;43465;50.728;4.160;2023-04-01T15:43:47;1.45;;;1.35;;
57635;SDS011;43465;50.728;4.160;2023-04-01T15:46:30;1.10;;;1.10;;
57635;SDS011;43465;50.728;4.160;2023-04-01T15:52:22;1.73;;;1.33;;
57635;SDS011;43465;50.728;4.160;2023-04-01T15:55:13;1.45;;;1.35;;
57635;SDS011;43465;50.728;4.160;2023-04-01T16:00:19;2.20;;;1.90;;
57635;SDS011;43465;50.728;4.160;2023-04-01T16:05:55;1.83;;;1.63;;
57635;SDS011;43465;50.728;4.160;2023-04-01T16:19:39;3.15;;;1.80;;
57635;SDS011;43465;50.728;4.160;2023-04-01T16:22:16;1.90;;;1.70;;
57635;SDS011;43465;50.728;4.160;2023-04-01T16:28:03;2.90;;;1.80;;
57635;SDS011;43465;50.728;4.160;2023-04-01T16:44:47;2.53;;;1.60;;
57635;SDS011;43465;50.728;4.160;2023-04-01T16:47:17;1.67;;;1.50;;
57635;SDS011;43465;50.728;4.160;2023-04-01T16:49:56;4.32;;;1.80;;
57635;SDS011;43465;50.728;4.160;2023-04-01T16:52:35;1.63;;;1.52;;
57635;SDS011;43465;50.728;4.160;2023-04-01T16:55:33;2.17;;;2.00;;
57635;SDS011;43465;50.728;4.160;2023-04-01T16:58:08;2.05;;;1.70;;
57635;SDS011;43465;50.728;4.160;2023-04-01T17:01:21;2.55;;;1.55;;
57635;SDS011;43465;50.728;4.160;2023-04-01T17:35:35;3.03;;;2.67;;
57635;SDS011;43465;50.728;4.160;2023-04-01T17:57:46;3.00;;;2.70;;
57635;SDS011;43465;50.728;4.160;2023-04-01T18:14:37;4.60;;;4.20;;
57635;SDS011;43465;50.728;4.160;2023-04-01T18:17:27;5.47;;;4.78;;
57635;SDS011;43465;50.728;4.160;2023-04-01T18:20:24;7.45;;;5.10;;
57635;SDS011;43465;50.728;4.160;2023-04-01T18:23:19;9.20;;;6.13;;
57635;SDS011;43465;50.728;4.160;2023-04-01T18:26:43;7.93;;;6.07;;
57635;SDS011;43465;50.728;4.160;2023-04-01T18:32:13;8.77;;;7.43;;
57635;SDS011;43465;50.728;4.160;2023-04-01T18:37:30;13.63;;;8.95;;
57635;SDS011;43465;50.728;4.160;2023-04-01T18:43:08;15.05;;;9.55;;
57635;SDS011;43465;50.728;4.160;2023-04-01T18:45:51;8.02;;;7.22;;
57635;SDS011;43465;50.728;4.160;2023-04-01T18:51:19;10.57;;;7.88;;
57635;SDS011;43465;50.728;4.160;2023-04-01T18:54:24;15.23;;;9.32;;
57635;SDS011;43465;50.728;4.160;2023-04-01T18:57:02;14.98;;;9.52;;
57635;SDS011;43465;50.728;4.160;2023-04-01T19:04:59;16.30;;;10.02;;
57635;SDS011;43465;50.728;4.160;2023-04-01T19:10:21;8.02;;;7.22;;
57635;SDS011;43465;50.728;4.160;2023-04-01T19:29:46;11.25;;;8.50;;
57635;SDS011;43465;50.728;4.160;2023-04-01T19:41:25;18.90;;;11.45;;
57635;SDS011;43465;50.728;4.160;2023-04-01T19:52:23;28.42;;;16.10;;
57635;SDS011;43465;50.728;4.160;2023-04-01T19:55:15;26.23;;;15.90;;
57635;SDS011;43465;50.728;4.160;2023-04-01T20:00:47;44.20;;;19.88;;
57635;SDS011;43465;50.728;4.160;2023-04-01T20:03:37;32.20;;;18.13;;
57635;SDS011;43465;50.728;4.160;2023-04-01T20:06:14;36.70;;;20.08;;
57635;SDS011;43465;50.728;4.160;2023-04-01T20:11:34;34.95;;;19.75;;
57635;SDS011;43465;50.728;4.160;2023-04-01T20:14:12;38.45;;;19.30;;
57635;SDS011;43465;50.728;4.160;2023-04-01T20:16:55;38.97;;;19.95;;
57635;SDS011;43465;50.728;4.160;2023-04-01T20:19:28;33.70;;;19.48;;
57635;SDS011;43465;50.728;4.160;2023-04-01T20:22:00;40.47;;;20.67;;
57635;SDS011;43465;50.728;4.160;2023-04-01T20:24:50;36.03;;;20.10;;
57635;SDS011;43465;50.728;4.160;2023-04-01T20:27:18;39.95;;;20.88;;
57635;SDS011;43465;50.728;4.160;2023-04-01T20:49:58;41.13;;;20.50;;
57635;SDS011;43465;50.728;4.160;2023-04-01T20:53:32;39.63;;;20.10;;
57635;SDS011;43465;50.728;4.160;2023-04-01T21:07:16;41.00;;;20.92;;
57635;SDS011;43465;50.728;4.160;2023-04-01T21:15:39;51.45;;;25.63;;
57635;SDS011;43465;50.728;4.160;2023-04-01T21:23:45;64.75;;;29.38;;
57635;SDS011;43465;50.728;4.160;2023-04-01T21:26:35;68.93;;;32.10;;
57635;SDS011;43465;50.728;4.160;2023-04-01T21:40:02;80.57;;;35.03;;
57635;SDS011;43465;50.728;4.160;2023-04-01T21:42:54;74.25;;;36.55;;
57635;SDS011;43465;50.728;4.160;2023-04-01T21:46:10;68.15;;;33.50;;
57635;SDS011;43465;50.728;4.160;2023-04-01T21:57:08;62.20;;;30.75;;
57635;SDS011;43465;50.728;4.160;2023-04-01T22:05:40;56.83;;;30.58;;
57635;SDS011;43465;50.728;4.160;2023-04-01T22:08:30;57.03;;;31.77;;
57635;SDS011;43465;50.728;4.160;2023-04-01T22:11:14;56.03;;;32.33;;
57635;SDS011;43465;50.728;4.160;2023-04-01T22:16:38;64.90;;;34.05;;
57635;SDS011;43465;50.728;4.160;2023-04-01T22:24:41;60.03;;;35.00;;
57635;SDS011;43465;50.728;4.160;2023-04-01T22:35:06;60.13;;;35.00;;
57635;SDS011;43465;50.728;4.160;2023-04-01T22:40:39;70.57;;;37.92;;
57635;SDS011;43465;50.728;4.160;2023-04-01T22:43:11;77.50;;;39.03;;
57635;SDS011;43465;50.728;4.160;2023-04-01T22:48:10;83.47;;;40.97;;
57635;SDS011;43465;50.728;4.160;2023-04-01T22:56:15;88.07;;;43.45;;
57635;SDS011;43465;50.728;4.160;2023-04-01T22:58:55;92.72;;;44.20;;
57635;SDS011;43465;50.728;4.160;2023-04-01T23:01:29;86.03;;;44.03;;
57635;SDS011;43465;50.728;4.160;2023-04-01T23:03:59;88.22;;;42.47;;
57635;SDS011;43465;50.728;4.160;2023-04-01T23:06:32;88.13;;;43.60;;
57635;SDS011;43465;50.728;4.160;2023-04-01T23:09:07;85.65;;;42.50;;
57635;SDS011;43465;50.728;4.160;2023-04-01T23:11:43;82.25;;;42.25;;
57635;SDS011;43465;50.728;4.160;2023-04-01T23:22:28;57.33;;;31.90;;
57635;SDS011;43465;50.728;4.160;2023-04-01T23:25:04;58.85;;;31.45;;
57635;SDS011;43465;50.728;4.160;2023-04-01T23:33:20;83.10;;;39.53;;
57635;SDS011;43465;50.728;4.160;2023-04-01T23:38:29;94.25;;;43.60;;
57635;SDS011;43465;50.728;4.160;2023-04-01T23:41:00;93.30;;;42.50;;
57635;SDS011;43465;50.728;4.160;2023-04-01T23:43:27;85.30;;;41.00;;
57635;SDS011;43465;50.728;4.160;2023-04-01T23:45:58;82.33;;;41.33;;
57635;SDS011;43465;50.728;4.160;2023-04-01T23:48:36;85.60;;;42.63;;
57635;SDS011;43465;50.728;4.160;2023-04-01T23:51:10;74.95;;;38.03;;
57635;SDS011;43465;50.728;4.160;2023-04-01T23:53:46;77.47;;;38.08;;
57635;SDS011;43465;50.728;4.160;2023-04-01T23:56:20;55.05;;;33.10;;
57635;SDS011;43465;50.728;4.160;2023-04-01T23:58:47;48.67;;;28.98;;
